首页
METAR-TAF:

METAR-TAF

机场 :

哥本哈根凯斯楚普机场

哥本哈根, 丹麦

纬度: 55-37N, 经度: 012-39E, 海拔: 5米

当前天气观测

该预报发布于22分钟前的16:50 UTC
风速16节,风向西南
温度 6°C
湿度 100%
气压 995 hPa
能见度10公里或以上
散云层高于900英尺
多云层高于1100英尺
小毛毛雨, 雨

METAR: EKCH 161650Z 23016KT 9999 -DZRA SCT009 BKN011 06/06 Q0995 TEMPO 3500 BKN006

时间: 18:12 (17:12 UTC)

预报

该预报发布于6小时和8分钟前的11:04 UTC
预报有效从16日的 12点(UTC)到 17日的 12点(UTC)
风速12节,风向西转西南
能见度10公里或以上
多云层高于1500英尺
短暂存在
从 16日的 12点(UTC)到 16日的 17点(UTC)
能見度: 4000
多云层高于800英尺
轻雾, 小雨, 毛毛雨
短暂存在
从 16日的 17点(UTC)到 17日的 08点(UTC)
风速18节,风向西转西南,有时为28节阵风
多云层高于1000英尺

TAF: EKCH 161104Z 1612/1712 24012KT 9999 BKN015 TEMPO 1612/1617 4000 BR -RADZ BKN008 TEMPO 1617/1708 24018G28KT BKN010

超过4000个机场的气象观测和天气预报(METAR&TAF报告)。

可查询的气象台以黄色和红色小点在地图上表示。

将鼠标移到小点上方,可查看气象台名称。

然后点击查看天气观测和预报。

如需切换地图:点击带黑十字的绿色按钮放大地图;点击带横线的绿色按钮缩小地图;或者点击绿色箭头查看邻近地区的地图。


METAR-TAF: